Time;durP1;ratioP1;P1;durP2;ratioP2;P2;SDS_P1;SDS_P2;PMS_P1;PMS_P2;Temp;Humidity;BMP_temperature;BMP_pressure;BME280_temperature;BME280_humidity;BME280_pressure;Samples;Min_cycle;Max_cycle;Signal;HPM_P1;HPM_P2
2023/03/11 00:00:53;;;;;;;19.25;9.07;;;1.10;99.90;;;;;;5034648;28;20045;-65
2023/03/11 00:03:22;;;;;;;17.05;10.40;;;1.10;99.90;;;;;;5035115;28;20041;-61
2023/03/11 00:05:48;;;;;;;15.63;8.88;;;1.00;99.90;;;;;;5035996;28;20096;-61
2023/03/11 00:08:15;;;;;;;20.10;9.82;;;1.00;99.90;;;;;;5035610;28;20128;-61
2023/03/11 00:10:42;;;;;;;18.27;9.27;;;0.90;99.90;;;;;;5034708;28;20531;-61
2023/03/11 00:13:09;;;;;;;35.08;15.80;;;0.90;99.90;;;;;;5035254;28;20049;-60
2023/03/11 00:15:36;;;;;;;54.08;23.15;;;0.80;99.90;;;;;;5035663;28;20051;-61
2023/03/11 00:18:02;;;;;;;53.90;23.33;;;0.70;99.90;;;;;;5034947;28;20136;-62
2023/03/11 00:20:29;;;;;;;44.67;19.63;;;0.70;99.90;;;;;;5031040;28;20038;-61
2023/03/11 00:22:56;;;;;;;39.53;19.15;;;0.60;99.90;;;;;;5034316;28;20083;-61
2023/03/11 00:25:23;;;;;;;32.92;14.50;;;0.60;99.90;;;;;;5033429;28;20037;-61
2023/03/11 00:27:49;;;;;;;30.70;13.68;;;0.70;99.90;;;;;;5034334;28;20451;-62
2023/03/11 00:30:17;;;;;;;18.23;10.18;;;0.60;99.90;;;;;;5042370;28;20045;-62
2023/03/11 00:32:46;;;;;;;18.58;10.93;;;0.60;99.90;;;;;;5045563;28;20037;-61
2023/03/11 00:35:13;;;;;;;22.75;10.60;;;0.60;99.90;;;;;;5035720;28;20049;-61
2023/03/11 00:37:39;;;;;;;23.50;11.27;;;0.60;99.90;;;;;;5052157;28;20496;-62
2023/03/11 00:40:07;;;;;;;16.52;10.18;;;0.60;99.90;;;;;;5040818;28;20080;-61
2023/03/11 00:42:34;;;;;;;19.45;10.38;;;0.60;99.90;;;;;;5033605;28;20121;-61
2023/03/11 00:45:01;;;;;;;18.73;10.73;;;0.60;99.90;;;;;;5034109;28;20045;-62
2023/03/11 00:47:28;;;;;;;21.38;10.70;;;0.60;99.90;;;;;;5035176;28;20493;-61
2023/03/11 00:49:55;;;;;;;19.55;9.15;;;0.60;99.90;;;;;;5035044;28;20145;-61
2023/03/11 00:52:22;;;;;;;16.67;9.73;;;0.60;99.90;;;;;;5033777;28;20053;-61
2023/03/11 00:54:48;;;;;;;20.80;10.38;;;0.60;99.90;;;;;;5033285;28;20083;-63
2023/03/11 00:57:15;;;;;;;16.75;8.93;;;0.50;99.90;;;;;;5017254;28;20049;-61
2023/03/11 00:59:43;;;;;;;14.57;9.13;;;0.50;99.90;;;;;;5033489;28;20103;-62
2023/03/11 01:02:09;;;;;;;14.93;8.63;;;0.50;99.90;;;;;;5034958;28;20037;-61
2023/03/11 01:04:36;;;;;;;14.52;8.70;;;0.50;99.90;;;;;;5034548;28;20473;-61
2023/03/11 01:07:03;;;;;;;20.67;10.20;;;0.50;99.90;;;;;;5034492;28;20076;-62
2023/03/11 01:09:30;;;;;;;15.70;8.18;;;0.40;99.90;;;;;;5033295;28;20050;-62
2023/03/11 01:11:56;;;;;;;15.80;7.72;;;0.40;99.90;;;;;;5033472;28;20053;-61
2023/03/11 01:14:23;;;;;;;20.65;11.68;;;0.50;99.90;;;;;;5033385;28;20064;-62
2023/03/11 01:16:50;;;;;;;26.70;13.55;;;0.40;99.90;;;;;;5033292;28;20492;-61
2023/03/11 01:19:17;;;;;;;19.45;9.52;;;0.40;99.90;;;;;;5032797;28;20045;-61
2023/03/11 01:21:44;;;;;;;14.57;9.15;;;0.30;99.90;;;;;;5034276;28;20041;-61
2023/03/11 01:24:10;;;;;;;23.60;10.98;;;0.30;99.90;;;;;;5032964;28;20041;-62
2023/03/11 01:26:37;;;;;;;20.23;10.05;;;0.20;99.90;;;;;;5034145;28;20041;-62
2023/03/11 01:29:04;;;;;;;15.98;8.65;;;0.20;99.90;;;;;;5033147;28;20053;-61
2023/03/11 01:31:31;;;;;;;17.98;8.60;;;0.20;99.90;;;;;;5034473;28;20444;-61
2023/03/11 01:33:57;;;;;;;15.18;7.63;;;0.20;99.90;;;;;;5034415;28;20473;-61
2023/03/11 01:36:25;;;;;;;16.13;7.50;;;0.20;99.90;;;;;;5033120;28;20488;-62
2023/03/11 01:38:52;;;;;;;12.05;7.40;;;0.10;99.90;;;;;;5034172;28;20486;-61
2023/03/11 01:41:19;;;;;;;10.82;7.10;;;0.10;99.90;;;;;;5033189;28;20061;-62
2023/03/11 01:43:46;;;;;;;14.52;8.02;;;0.10;99.90;;;;;;5032758;28;20069;-62
2023/03/11 01:46:28;;;;;;;15.13;7.70;;;0.10;99.90;;;;;;5033082;28;20071;-62
2023/03/11 01:48:57;;;;;;;14.27;7.85;;;0.10;99.90;;;;;;5033192;28;20408;-59
2023/03/11 01:51:26;;;;;;;19.17;8.43;;;0.10;99.90;;;;;;5033244;28;20132;-60
2023/03/11 01:53:53;;;;;;;18.40;7.88;;;0.10;99.90;;;;;;5032931;28;20531;-59
2023/03/11 01:56:20;;;;;;;15.73;7.97;;;0.00;99.90;;;;;;5033016;28;20412;-61
2023/03/11 01:58:48;;;;;;;15.23;8.27;;;0.10;99.90;;;;;;5032435;28;20526;-61
2023/03/11 02:01:15;;;;;;;15.90;8.07;;;0.00;99.90;;;;;;5032273;28;20091;-61
2023/03/11 02:03:42;;;;;;;12.40;8.32;;;0.00;99.90;;;;;;5032169;28;20488;-61
2023/03/11 02:06:10;;;;;;;12.98;7.50;;;0.00;99.90;;;;;;5032679;28;20048;-60
2023/03/11 02:08:36;;;;;;;15.10;8.50;;;0.00;99.90;;;;;;5032755;28;20133;-60
2023/03/11 02:11:05;;;;;;;14.73;7.35;;;0.00;99.90;;;;;;5032709;28;20373;-61
2023/03/11 02:13:34;;;;;;;14.07;7.85;;;0.00;99.90;;;;;;5033811;28;20099;-61
2023/03/11 02:16:00;;;;;;;16.17;7.80;;;0.00;99.90;;;;;;5032283;28;20037;-61
2023/03/11 02:18:27;;;;;;;14.10;7.72;;;-0.10;99.90;;;;;;5031969;28;20045;-61
2023/03/11 02:20:54;;;;;;;14.30;8.60;;;-0.20;99.90;;;;;;5032307;28;20037;-61
2023/03/11 02:23:21;;;;;;;12.60;7.57;;;-0.20;99.90;;;;;;5032234;28;20045;-62
2023/03/11 02:25:48;;;;;;;13.63;7.68;;;-0.20;99.90;;;;;;5032424;28;20420;-61
2023/03/11 02:28:15;;;;;;;13.07;7.68;;;-0.20;99.90;;;;;;5032410;28;20139;-61
2023/03/11 02:30:42;;;;;;;15.13;7.80;;;-0.20;99.90;;;;;;5033411;28;20045;-61
2023/03/11 02:33:08;;;;;;;14.98;8.35;;;-0.20;99.90;;;;;;5032105;28;20116;-61
2023/03/11 02:35:35;;;;;;;12.18;7.85;;;-0.20;99.90;;;;;;5033580;28;20053;-61
2023/03/11 02:38:02;;;;;;;16.10;7.68;;;-0.30;99.90;;;;;;5032204;28;20095;-61
2023/03/11 02:40:30;;;;;;;15.23;7.75;;;-0.30;99.90;;;;;;5032267;28;20068;-61
2023/03/11 02:42:57;;;;;;;12.07;7.75;;;-0.30;99.90;;;;;;5033102;28;20065;-61
2023/03/11 02:45:24;;;;;;;12.05;7.38;;;-0.30;99.90;;;;;;5031985;28;20045;-61
2023/03/11 02:47:51;;;;;;;15.85;8.23;;;-0.30;99.90;;;;;;5032295;28;20073;-61
2023/03/11 02:50:18;;;;;;;15.50;8.07;;;-0.30;99.90;;;;;;5033722;28;20041;-62
2023/03/11 02:52:45;;;;;;;15.38;7.80;;;-0.30;99.90;;;;;;5032343;28;20496;-61
2023/03/11 02:55:11;;;;;;;18.08;7.82;;;-0.30;99.90;;;;;;5032161;28;20053;-61
2023/03/11 02:57:39;;;;;;;14.38;7.68;;;-0.40;99.90;;;;;;5031394;28;20038;-61
2023/03/11 03:00:15;;;;;;;15.10;7.93;;;-0.40;99.90;;;;;;5032064;28;20133;-61
2023/03/11 03:02:52;;;;;;;17.00;7.90;;;-0.40;99.90;;;;;;5032053;28;20052;-61
2023/03/11 03:05:20;;;;;;;12.55;7.63;;;-0.30;99.90;;;;;;5034856;28;20046;-62
2023/03/11 03:07:47;;;;;;;13.02;7.28;;;-0.30;99.90;;;;;;5035894;28;20045;-61
2023/03/11 03:10:14;;;;;;;11.52;7.45;;;-0.30;99.90;;;;;;5036831;28;20469;-61
2023/03/11 03:12:40;;;;;;;14.57;7.50;;;-0.40;99.90;;;;;;5036616;28;20052;-61
2023/03/11 03:15:08;;;;;;;12.15;7.90;;;-0.40;99.90;;;;;;5037154;28;20055;-61
2023/03/11 03:17:35;;;;;;;12.63;7.30;;;-0.40;99.90;;;;;;5035353;28;20061;-61
2023/03/11 03:20:07;;;;;;;15.38;7.75;;;-0.50;99.90;;;;;;5035395;28;20045;-61
2023/03/11 03:22:34;;;;;;;11.88;7.03;;;-0.50;99.90;;;;;;5035754;28;20392;-61
2023/03/11 03:25:01;;;;;;;12.05;7.88;;;-0.50;99.90;;;;;;5036436;28;20420;-61
2023/03/11 03:27:29;;;;;;;13.38;7.43;;;-0.50;99.90;;;;;;5036382;28;20049;-61
2023/03/11 03:29:56;;;;;;;14.55;8.25;;;-0.50;99.90;;;;;;5035138;28;20049;-61
2023/03/11 03:32:23;;;;;;;10.27;7.07;;;-0.50;99.90;;;;;;5035013;28;20053;-61
2023/03/11 03:34:50;;;;;;;17.40;7.95;;;-0.50;99.90;;;;;;5035552;28;20215;-61
2023/03/11 03:37:17;;;;;;;12.93;7.68;;;-0.60;99.90;;;;;;5035331;28;20125;-60
2023/03/11 03:39:44;;;;;;;12.05;7.47;;;-0.60;99.90;;;;;;5035265;28;20132;-61
2023/03/11 03:42:12;;;;;;;11.93;7.13;;;-0.60;99.90;;;;;;5034859;28;20049;-60
2023/03/11 03:44:40;;;;;;;16.60;7.25;;;-0.60;99.90;;;;;;5034752;28;20427;-60
2023/03/11 03:47:07;;;;;;;16.17;7.78;;;-0.60;99.90;;;;;;5034970;28;20451;-60
2023/03/11 03:49:34;;;;;;;13.82;6.82;;;-0.60;99.90;;;;;;5036530;28;20048;-60
2023/03/11 03:52:01;;;;;;;15.65;7.80;;;-0.60;99.90;;;;;;5034622;28;20132;-59
2023/03/11 03:54:30;;;;;;;13.30;7.50;;;-0.60;99.90;;;;;;5034817;28;20045;-60
2023/03/11 03:56:57;;;;;;;12.90;7.18;;;-0.70;99.90;;;;;;5034995;28;20084;-60
2023/03/11 03:59:24;;;;;;;11.63;7.07;;;-0.70;99.90;;;;;;5036153;28;20057;-61
2023/03/11 04:01:54;;;;;;;13.43;7.25;;;-0.70;99.90;;;;;;5034864;28;20124;-61
2023/03/11 04:04:22;;;;;;;13.60;7.97;;;-0.70;99.90;;;;;;5034518;28;20447;-61
2023/03/11 04:06:49;;;;;;;11.27;7.10;;;-0.70;99.90;;;;;;5034647;28;20124;-61
2023/03/11 04:09:17;;;;;;;14.23;8.07;;;-0.80;99.90;;;;;;5034619;28;20045;-61
2023/03/11 04:11:44;;;;;;;15.52;8.38;;;-0.80;99.90;;;;;;5035859;28;20068;-59
2023/03/11 04:14:13;;;;;;;14.50;7.75;;;-0.80;99.90;;;;;;5034592;28;20065;-61
2023/03/11 04:16:48;;;;;;;11.93;7.73;;;-0.80;99.90;;;;;;5033958;28;20409;-61
2023/03/11 04:19:16;;;;;;;13.82;7.93;;;-0.80;99.90;;;;;;5034340;28;20558;-57
2023/03/11 04:21:42;;;;;;;14.32;7.32;;;-0.80;99.90;;;;;;5034028;28;20144;-62
2023/03/11 04:24:10;;;;;;;13.85;7.43;;;-0.80;99.90;;;;;;5034364;28;20393;-60
2023/03/11 04:26:38;;;;;;;16.23;7.10;;;-0.80;99.90;;;;;;5034444;28;20551;-61
2023/03/11 04:29:09;;;;;;;13.25;7.28;;;-0.80;99.90;;;;;;5034341;28;20046;-61
2023/03/11 04:31:40;;;;;;;12.25;6.97;;;-0.80;99.90;;;;;;5034539;28;20068;-61
2023/03/11 04:34:08;;;;;;;14.68;7.05;;;-0.90;99.90;;;;;;5034158;28;20552;-62
2023/03/11 04:36:36;;;;;;;12.85;7.13;;;-0.80;99.90;;;;;;5034247;28;20037;-62
2023/03/11 04:39:04;;;;;;;10.68;6.88;;;-0.70;99.90;;;;;;5033679;28;20095;-62
2023/03/11 04:41:35;;;;;;;11.52;7.32;;;-0.70;99.90;;;;;;5034012;28;20043;-61
2023/03/11 04:44:02;;;;;;;11.13;6.80;;;-0.70;99.90;;;;;;5034210;28;20069;-61
2023/03/11 04:46:29;;;;;;;12.73;7.43;;;-0.60;99.90;;;;;;5034119;28;20080;-62
2023/03/11 04:48:58;;;;;;;10.07;6.72;;;-0.60;99.90;;;;;;5034289;28;20053;-61
2023/03/11 04:51:25;;;;;;;10.57;6.55;;;-0.50;99.90;;;;;;5035316;28;20045;-62
2023/03/11 04:53:52;;;;;;;10.82;7.10;;;-0.50;99.90;;;;;;5033828;28;20045;-62
2023/03/11 04:56:19;;;;;;;15.38;7.25;;;-0.50;99.90;;;;;;5033935;28;20081;-61
2023/03/11 04:58:46;;;;;;;11.25;6.18;;;-0.40;99.90;;;;;;5034038;28;20056;-62
2023/03/11 05:01:13;;;;;;;10.80;6.60;;;-0.40;99.90;;;;;;5033890;28;20084;-62
2023/03/11 05:03:40;;;;;;;10.68;6.50;;;-0.30;99.90;;;;;;5033318;28;20042;-61
2023/03/11 05:06:09;;;;;;;12.60;6.90;;;-0.30;99.90;;;;;;5033919;28;20435;-61
2023/03/11 05:08:36;;;;;;;14.45;6.47;;;-0.20;99.90;;;;;;5033662;28;20489;-61
2023/03/11 05:11:03;;;;;;;11.70;6.93;;;-0.20;99.90;;;;;;5034953;28;20095;-61
2023/03/11 05:13:30;;;;;;;12.38;6.13;;;-0.20;99.90;;;;;;5033366;28;20042;-61
2023/03/11 05:15:57;;;;;;;12.15;6.75;;;-0.10;99.90;;;;;;5033733;28;20454;-61
2023/03/11 05:18:24;;;;;;;9.13;5.90;;;-0.10;99.90;;;;;;5033519;28;20041;-61
2023/03/11 05:20:52;;;;;;;13.75;6.35;;;-0.10;99.90;;;;;;5033348;28;20053;-61
2023/03/11 05:23:22;;;;;;;10.68;6.50;;;0.00;99.90;;;;;;5033702;28;20045;-61
2023/03/11 05:25:50;;;;;;;10.15;5.75;;;0.00;99.90;;;;;;5033085;28;20091;-61
2023/03/11 05:28:17;;;;;;;11.45;6.15;;;0.00;99.90;;;;;;5032826;28;20041;-61
2023/03/11 05:30:49;;;;;;;10.35;6.40;;;0.00;99.90;;;;;;5033370;28;20045;-61
2023/03/11 05:33:17;;;;;;;9.63;5.93;;;0.00;99.90;;;;;;5033038;28;20571;-61
2023/03/11 05:35:44;;;;;;;10.23;5.43;;;0.00;99.90;;;;;;5033340;28;20358;-61
2023/03/11 05:38:12;;;;;;;9.27;5.78;;;0.10;99.90;;;;;;5033043;28;20590;-60
2023/03/11 05:40:39;;;;;;;10.88;5.82;;;0.10;99.90;;;;;;5032951;28;20045;-61
2023/03/11 05:43:05;;;;;;;9.63;5.60;;;0.10;99.90;;;;;;5033984;28;20448;-61
2023/03/11 05:45:36;;;;;;;9.38;5.50;;;0.10;99.90;;;;;;5033017;28;20050;-61
2023/03/11 05:48:04;;;;;;;12.00;5.85;;;0.00;99.90;;;;;;5032503;28;20511;-61
2023/03/11 05:50:32;;;;;;;14.10;5.80;;;0.10;99.90;;;;;;5033141;28;20107;-61
2023/03/11 05:52:59;;;;;;;11.05;4.88;;;0.10;99.90;;;;;;5032512;28;20500;-62
2023/03/11 05:55:29;;;;;;;10.10;5.15;;;0.10;99.90;;;;;;5032804;28;20049;-62
2023/03/11 05:57:56;;;;;;;9.20;5.00;;;0.10;99.90;;;;;;5032659;28;20053;-61
2023/03/11 06:00:23;;;;;;;7.47;4.65;;;0.20;99.90;;;;;;5033861;28;20044;-60
2023/03/11 06:02:51;;;;;;;9.05;4.70;;;0.20;99.90;;;;;;5032496;28;20459;-61
2023/03/11 06:05:18;;;;;;;12.25;4.90;;;0.20;99.90;;;;;;5032460;28;20493;-61
2023/03/11 06:07:47;;;;;;;9.80;4.75;;;0.10;99.90;;;;;;5032399;28;20489;-61
2023/03/11 06:10:14;;;;;;;9.05;4.38;;;0.10;99.90;;;;;;5034031;28;20041;-60
2023/03/11 06:12:41;;;;;;;6.50;4.30;;;0.10;99.90;;;;;;5032360;28;20132;-61
2023/03/11 06:15:31;;;;;;;7.60;3.95;;;0.20;99.90;;;;;;5035950;28;20057;-60
2023/03/11 06:17:58;;;;;;;10.15;5.07;;;0.20;99.90;;;;;;5033787;28;20444;-62
2023/03/11 06:20:25;;;;;;;8.80;4.60;;;0.20;99.90;;;;;;5034083;28;20120;-59
2023/03/11 06:22:52;;;;;;;8.57;4.40;;;0.30;99.90;;;;;;5032052;28;20048;-62
2023/03/11 06:25:21;;;;;;;8.25;3.70;;;0.30;99.90;;;;;;5032730;28;20092;-60
2023/03/11 06:27:50;;;;;;;9.88;4.35;;;0.30;99.90;;;;;;5032219;28;20041;-61
2023/03/11 06:30:17;;;;;;;7.50;4.32;;;0.30;99.90;;;;;;5032402;28;20080;-59
2023/03/11 06:32:53;;;;;;;11.95;4.43;;;0.30;99.90;;;;;;5032063;28;20049;-60
2023/03/11 06:35:20;;;;;;;7.68;3.83;;;0.30;99.90;;;;;;5033394;28;20042;-58
2023/03/11 06:37:47;;;;;;;10.15;3.92;;;0.40;99.90;;;;;;5033442;28;20045;-61
2023/03/11 06:40:14;;;;;;;6.72;3.63;;;0.40;99.90;;;;;;5031385;28;20053;-60
2023/03/11 06:42:41;;;;;;;10.57;3.53;;;0.40;99.90;;;;;;5033619;28;20041;-61
2023/03/11 06:45:10;;;;;;;7.78;3.90;;;0.40;99.90;;;;;;5032206;28;20500;-60
2023/03/11 06:47:39;;;;;;;8.45;3.80;;;0.50;99.90;;;;;;5032504;28;20088;-59
2023/03/11 06:50:08;;;;;;;5.80;3.47;;;0.50;99.90;;;;;;5031921;28;20045;-60
2023/03/11 06:52:35;;;;;;;10.10;4.18;;;0.50;99.90;;;;;;5031915;28;20054;-60
2023/03/11 06:55:02;;;;;;;9.38;3.95;;;0.50;99.90;;;;;;5032337;28;20083;-61
2023/03/11 06:57:30;;;;;;;5.78;3.63;;;0.50;99.90;;;;;;5032091;28;20045;-61
2023/03/11 07:00:01;;;;;;;6.65;3.90;;;0.50;99.90;;;;;;5031735;28;20531;-61
2023/03/11 07:02:29;;;;;;;9.60;3.80;;;0.50;99.90;;;;;;5031969;28;20045;-59
2023/03/11 07:04:56;;;;;;;7.97;3.50;;;0.50;99.90;;;;;;5031987;28;20124;-61
2023/03/11 07:07:22;;;;;;;6.70;3.28;;;0.50;99.90;;;;;;5032979;28;20041;-60
2023/03/11 07:09:49;;;;;;;9.90;3.70;;;0.60;99.90;;;;;;5033716;28;20350;-61
2023/03/11 07:12:16;;;;;;;9.10;3.28;;;0.70;99.90;;;;;;5015661;28;20053;-62
2023/03/11 07:14:43;;;;;;;8.38;3.28;;;0.70;99.90;;;;;;5031781;28;20100;-59
2023/03/11 07:17:10;;;;;;;8.25;3.85;;;0.80;99.90;;;;;;5033474;28;20041;-61
2023/03/11 07:19:43;;;;;;;8.02;3.67;;;0.80;99.90;;;;;;5031866;28;20071;-61
2023/03/11 07:22:10;;;;;;;7.00;3.70;;;0.80;99.90;;;;;;5033446;28;20532;-61
2023/03/11 07:24:37;;;;;;;5.28;3.05;;;0.90;99.90;;;;;;5033368;28;20451;-61
2023/03/11 07:27:03;;;;;;;7.50;3.60;;;0.90;99.90;;;;;;5033192;28;20481;-59
2023/03/11 07:29:30;;;;;;;4.65;2.90;;;1.00;99.90;;;;;;5033222;28;20053;-61
2023/03/11 07:31:57;;;;;;;7.68;3.25;;;1.00;99.90;;;;;;5032683;28;20073;-61
2023/03/11 07:34:24;;;;;;;8.98;3.53;;;1.00;99.90;;;;;;5033433;28;20128;-61
2023/03/11 07:36:50;;;;;;;5.63;2.75;;;1.10;99.90;;;;;;5032811;28;20042;-59
2023/03/11 07:39:17;;;;;;;7.38;3.60;;;1.10;99.90;;;;;;5032802;28;20046;-59
2023/03/11 07:41:44;;;;;;;7.68;3.08;;;1.20;99.90;;;;;;5033055;28;20495;-61
2023/03/11 07:44:11;;;;;;;8.50;3.65;;;1.20;99.90;;;;;;5033056;28;20045;-61
2023/03/11 07:46:38;;;;;;;11.10;3.67;;;1.30;99.90;;;;;;5032900;28;20037;-59
2023/03/11 07:49:04;;;;;;;6.75;3.40;;;1.40;99.90;;;;;;5032968;28;20104;-61
2023/03/11 07:51:31;;;;;;;8.85;4.07;;;1.40;99.90;;;;;;5034363;28;20443;-62
2023/03/11 07:53:58;;;;;;;11.82;4.00;;;1.50;99.90;;;;;;5036074;28;20051;-62
2023/03/11 07:56:24;;;;;;;11.05;4.38;;;1.60;99.90;;;;;;5035925;28;20099;-61
2023/03/11 07:58:51;;;;;;;8.57;4.05;;;1.60;99.90;;;;;;5035909;28;20049;-62
2023/03/11 08:01:18;;;;;;;10.40;3.92;;;1.60;99.90;;;;;;5036546;28;20088;-61
2023/03/11 08:03:45;;;;;;;12.40;4.07;;;1.70;99.90;;;;;;5034802;28;20049;-62
2023/03/11 08:06:12;;;;;;;8.75;3.63;;;1.80;99.90;;;;;;5036154;28;20145;-59
2023/03/11 08:08:39;;;;;;;11.27;3.72;;;1.80;99.90;;;;;;5036049;28;20045;-62
2023/03/11 08:11:06;;;;;;;9.20;3.38;;;1.90;99.90;;;;;;5035915;28;20124;-61
2023/03/11 08:13:32;;;;;;;8.23;3.53;;;1.90;99.90;;;;;;5036229;28;20448;-62
2023/03/11 08:15:59;;;;;;;7.28;3.60;;;2.00;99.90;;;;;;5034501;28;20033;-61
2023/03/11 08:18:26;;;;;;;6.22;3.08;;;2.00;99.90;;;;;;5035546;28;20050;-61
2023/03/11 08:20:54;;;;;;;7.80;3.50;;;2.10;99.90;;;;;;5036227;28;20072;-61
2023/03/11 08:23:21;;;;;;;7.00;3.30;;;2.10;99.90;;;;;;5036097;28;20444;-61
2023/03/11 08:25:47;;;;;;;10.30;3.22;;;2.20;99.90;;;;;;5035723;28;20488;-60
2023/03/11 08:28:14;;;;;;;9.80;3.15;;;2.30;99.90;;;;;;5035767;28;20037;-61
2023/03/11 08:30:41;;;;;;;6.18;2.63;;;2.30;99.90;;;;;;5035959;28;20049;-62
2023/03/11 08:33:08;;;;;;;4.70;2.53;;;2.40;99.90;;;;;;5034123;28;20059;-61
2023/03/11 08:35:35;;;;;;;6.88;2.55;;;2.40;99.90;;;;;;5035882;28;20149;-61
2023/03/11 08:38:02;;;;;;;6.60;2.70;;;2.50;99.90;;;;;;5034757;28;20053;-59
2023/03/11 08:40:29;;;;;;;9.55;3.00;;;2.60;99.90;;;;;;5047831;28;20044;-60
2023/03/11 08:42:56;;;;;;;6.60;2.92;;;2.60;99.90;;;;;;5049686;28;20462;-61
2023/03/11 08:45:22;;;;;;;4.85;2.13;;;2.70;99.90;;;;;;5035548;28;20040;-61
2023/03/11 08:47:49;;;;;;;8.77;2.67;;;2.70;99.90;;;;;;5035374;28;20041;-61
2023/03/11 08:50:16;;;;;;;7.68;2.80;;;2.70;99.90;;;;;;5035174;28;20050;-61
2023/03/11 08:52:43;;;;;;;8.10;3.28;;;2.80;99.90;;;;;;5035336;28;20041;-61
2023/03/11 08:55:10;;;;;;;6.07;2.33;;;2.90;99.90;;;;;;5035438;28;20076;-61
2023/03/11 08:57:37;;;;;;;8.60;2.90;;;2.90;99.90;;;;;;5035421;28;20080;-64
2023/03/11 09:00:04;;;;;;;5.15;2.30;;;2.90;99.90;;;;;;5035674;28;20046;-60
2023/03/11 09:02:30;;;;;;;7.90;2.72;;;2.90;99.90;;;;;;5034342;28;20042;-61
2023/03/11 09:04:57;;;;;;;6.88;2.47;;;3.00;99.90;;;;;;5034299;28;20045;-61
2023/03/11 09:07:24;;;;;;;6.43;2.20;;;3.10;99.90;;;;;;5033382;28;20033;-62
2023/03/11 09:09:51;;;;;;;7.90;2.45;;;3.20;99.90;;;;;;5033517;28;20041;-62
2023/03/11 09:12:17;;;;;;;9.75;2.22;;;3.30;99.90;;;;;;5033999;28;20050;-64
2023/03/11 09:14:44;;;;;;;9.80;2.13;;;3.40;99.90;;;;;;5033757;28;20041;-62
2023/03/11 09:17:11;;;;;;;6.20;2.13;;;3.50;99.90;;;;;;5034611;28;20045;-61
2023/03/11 09:19:38;;;;;;;11.45;2.85;;;3.60;99.90;;;;;;5033675;28;20053;-62
2023/03/11 09:22:04;;;;;;;9.35;2.42;;;3.70;99.90;;;;;;5033077;28;20038;-63
2023/03/11 09:24:31;;;;;;;7.60;2.13;;;3.80;99.90;;;;;;5032919;28;20049;-62
2023/03/11 09:26:58;;;;;;;10.25;2.30;;;3.80;99.90;;;;;;5032629;28;20409;-61
2023/03/11 09:29:25;;;;;;;8.13;2.28;;;3.90;99.90;;;;;;5032977;28;20053;-62
2023/03/11 09:31:51;;;;;;;7.18;1.70;;;4.00;99.90;;;;;;5032299;28;20048;-62
2023/03/11 09:34:18;;;;;;;5.97;1.77;;;4.10;99.90;;;;;;5032602;28;20128;-61
2023/03/11 09:36:45;;;;;;;6.10;2.20;;;4.20;99.90;;;;;;5033800;28;20124;-62
2023/03/11 09:39:12;;;;;;;4.43;1.60;;;4.30;99.90;;;;;;5033432;28;20054;-62
2023/03/11 09:41:39;;;;;;;7.22;1.40;;;4.50;99.90;;;;;;5034014;28;20099;-62
2023/03/11 09:44:23;;;;;;;4.10;1.10;;;4.50;99.90;;;;;;5033402;28;20492;-62
2023/03/11 09:46:50;;;;;;;5.15;1.45;;;4.70;99.90;;;;;;5034044;28;20096;-64
2023/03/11 09:49:16;;;;;;;5.22;1.30;;;4.70;99.90;;;;;;5033099;28;20053;-61
2023/03/11 09:51:43;;;;;;;8.07;1.75;;;4.80;99.90;;;;;;5033730;28;20088;-59
2023/03/11 09:54:10;;;;;;;6.93;1.70;;;4.90;99.90;;;;;;5033383;28;20037;-60
2023/03/11 09:56:37;;;;;;;8.18;1.33;;;5.00;99.90;;;;;;5033589;28;20045;-59
2023/03/11 09:59:04;;;;;;;5.22;1.30;;;5.10;99.90;;;;;;5033593;28;20053;-61
2023/03/11 10:01:32;;;;;;;6.60;1.30;;;5.20;99.90;;;;;;5029899;28;20045;-60
2023/03/11 10:03:58;;;;;;;6.50;1.30;;;5.30;99.90;;;;;;5029640;28;20476;-61
2023/03/11 10:06:25;;;;;;;6.18;1.30;;;5.30;99.90;;;;;;5033428;28;20099;-62
2023/03/11 10:08:52;;;;;;;3.60;1.05;;;5.40;99.90;;;;;;5032609;28;20068;-61
2023/03/11 10:11:19;;;;;;;6.15;1.50;;;5.40;99.90;;;;;;5033026;28;20128;-62
2023/03/11 10:13:46;;;;;;;4.00;1.30;;;5.40;99.90;;;;;;5031846;28;20504;-62
2023/03/11 10:16:13;;;;;;;6.03;1.38;;;5.50;99.90;;;;;;5033167;28;20055;-62
2023/03/11 10:18:40;;;;;;;8.75;1.52;;;5.50;99.90;;;;;;5032718;28;20057;-61
2023/03/11 10:21:06;;;;;;;7.13;1.55;;;5.60;99.90;;;;;;5032102;28;20377;-62
2023/03/11 10:23:33;;;;;;;8.95;2.25;;;5.70;99.90;;;;;;5032637;28;20113;-61
2023/03/11 10:26:00;;;;;;;7.88;1.73;;;5.80;99.90;;;;;;5032699;28;20037;-62
2023/03/11 10:28:27;;;;;;;6.53;1.30;;;5.80;99.90;;;;;;5031696;28;20040;-62
2023/03/11 10:30:54;;;;;;;11.13;1.65;;;5.80;99.90;;;;;;5039474;28;20045;-62
2023/03/11 10:33:21;;;;;;;7.82;1.67;;;5.90;99.90;;;;;;5032911;28;20056;-62
2023/03/11 10:35:48;;;;;;;7.22;1.80;;;5.90;99.90;;;;;;5032393;28;20396;-62
2023/03/11 10:38:15;;;;;;;7.90;1.80;;;6.00;99.90;;;;;;5032575;28;20394;-62
2023/03/11 10:40:41;;;;;;;11.25;1.70;;;6.00;99.90;;;;;;5032513;28;20037;-62
2023/03/11 10:43:08;;;;;;;6.35;1.38;;;6.00;99.90;;;;;;5032677;28;20061;-61
2023/03/11 10:45:35;;;;;;;9.35;1.50;;;6.10;99.90;;;;;;5032689;28;20080;-61
2023/03/11 10:48:02;;;;;;;7.47;2.22;;;6.10;99.90;;;;;;5032488;28;20038;-61
2023/03/11 10:50:28;;;;;;;7.22;2.40;;;6.10;99.90;;;;;;5033056;28;20073;-62
2023/03/11 10:52:55;;;;;;;8.38;2.30;;;6.20;99.90;;;;;;5032529;28;20088;-61
2023/03/11 10:55:22;;;;;;;11.10;2.00;;;6.20;99.90;;;;;;5032872;28;20096;-61
2023/03/11 10:57:49;;;;;;;6.13;2.00;;;6.20;99.90;;;;;;5032609;28;20054;-62
2023/03/11 11:00:16;;;;;;;9.35;1.63;;;6.20;99.90;;;;;;5032482;28;20041;-62
2023/03/11 11:02:43;;;;;;;7.45;2.53;;;6.30;99.90;;;;;;5032108;28;20049;-60
2023/03/11 11:05:09;;;;;;;9.55;2.00;;;6.40;99.90;;;;;;5031121;28;20040;-60
2023/03/11 11:07:36;;;;;;;11.10;1.42;;;6.40;99.90;;;;;;5032289;28;20069;-61
2023/03/11 11:10:03;;;;;;;7.35;2.55;;;6.40;99.90;;;;;;5029575;28;20458;-61
2023/03/11 11:12:29;;;;;;;5.03;1.50;;;6.40;99.90;;;;;;5032384;28;20041;-63
2023/03/11 11:14:56;;;;;;;8.13;1.50;;;6.50;99.90;;;;;;5031811;28;20041;-61
2023/03/11 11:17:23;;;;;;;4.95;1.83;;;6.60;99.90;;;;;;5032034;28;20124;-61
2023/03/11 11:19:50;;;;;;;9.52;1.83;;;6.70;99.90;;;;;;5032495;28;20469;-62
2023/03/11 11:22:17;;;;;;;8.73;1.70;;;6.60;99.90;;;;;;5031883;28;20049;-62
2023/03/11 11:24:44;;;;;;;6.57;1.58;;;6.70;99.90;;;;;;5032722;28;20477;-61
2023/03/11 11:27:11;;;;;;;8.73;1.77;;;6.70;99.90;;;;;;5036505;28;20037;-60
2023/03/11 11:29:38;;;;;;;9.45;1.70;;;6.70;99.90;;;;;;5036751;28;20046;-61
2023/03/11 11:32:04;;;;;;;7.40;2.10;;;6.70;99.90;;;;;;5036637;28;20049;-62
2023/03/11 11:34:31;;;;;;;6.95;1.83;;;6.70;99.90;;;;;;5036261;28;20115;-61
2023/03/11 11:36:58;;;;;;;6.63;2.58;;;6.70;99.90;;;;;;5036110;28;20042;-61
2023/03/11 11:39:25;;;;;;;8.52;2.00;;;6.80;99.90;;;;;;5036628;28;20046;-61
2023/03/11 11:41:51;;;;;;;6.93;1.95;;;6.80;99.90;;;;;;5036442;28;20041;-61
2023/03/11 11:44:18;;;;;;;6.55;2.05;;;6.80;99.90;;;;;;5035510;28;20049;-62
2023/03/11 11:46:45;;;;;;;7.75;1.75;;;6.80;99.90;;;;;;5036199;28;20037;-61
2023/03/11 11:49:11;;;;;;;3.88;1.67;;;6.80;99.90;;;;;;5035673;28;20041;-61
2023/03/11 11:51:39;;;;;;;8.90;2.33;;;6.80;99.90;;;;;;5035912;28;20392;-61
2023/03/11 11:54:06;;;;;;;6.50;1.70;;;6.80;99.90;;;;;;5036079;28;20048;-60
2023/03/11 11:56:32;;;;;;;6.78;1.80;;;6.90;99.90;;;;;;5035371;28;20508;-62
2023/03/11 11:58:59;;;;;;;14.80;2.50;;;6.90;99.90;;;;;;5035901;28;20049;-62
2023/03/11 12:01:26;;;;;;;7.45;1.70;;;6.90;99.90;;;;;;5035455;28;20370;-61
2023/03/11 12:03:53;;;;;;;4.22;1.30;;;6.90;99.90;;;;;;5036007;28;20045;-59
2023/03/11 12:06:20;;;;;;;8.05;1.80;;;6.90;99.90;;;;;;5035229;28;20095;-61
2023/03/11 12:08:47;;;;;;;6.57;1.85;;;6.90;99.90;;;;;;5034347;28;20048;-62
2023/03/11 12:11:13;;;;;;;9.57;1.40;;;6.90;99.90;;;;;;5035615;28;20485;-62
2023/03/11 12:13:40;;;;;;;8.23;1.70;;;6.90;99.90;;;;;;5034210;28;20041;-62
2023/03/11 12:16:07;;;;;;;4.78;1.20;;;7.00;99.90;;;;;;5030478;28;20045;-61
2023/03/11 12:18:34;;;;;;;4.32;1.35;;;7.00;99.90;;;;;;5029615;28;20140;-62
2023/03/11 12:21:00;;;;;;;4.72;1.05;;;7.10;99.90;;;;;;5035282;28;20065;-61
2023/03/11 12:23:27;;;;;;;4.88;1.40;;;7.20;99.40;;;;;;5035022;28;20052;-61
2023/03/11 12:25:54;;;;;;;6.47;1.30;;;7.20;99.90;;;;;;5035718;28;20091;-62
2023/03/11 12:28:21;;;;;;;6.88;1.63;;;7.20;99.90;;;;;;5034691;28;20555;-61
2023/03/11 12:30:49;;;;;;;7.38;1.80;;;7.30;99.90;;;;;;5035389;28;20049;-61
2023/03/11 12:33:16;;;;;;;4.45;1.10;;;7.40;99.80;;;;;;5035209;28;20053;-62
2023/03/11 12:35:42;;;;;;;5.07;1.10;;;7.40;99.10;;;;;;5035006;28;20124;-61
2023/03/11 12:38:09;;;;;;;4.22;1.23;;;7.40;99.70;;;;;;5034517;28;20465;-62
2023/03/11 12:40:36;;;;;;;6.28;1.98;;;7.40;99.70;;;;;;5034612;28;20029;-60
2023/03/11 12:43:03;;;;;;;6.38;1.65;;;7.40;99.90;;;;;;5035304;28;20049;-62
2023/03/11 12:45:29;;;;;;;6.43;1.92;;;7.50;99.70;;;;;;5035251;28;20041;-62
2023/03/11 12:47:56;;;;;;;7.45;1.42;;;7.50;99.50;;;;;;5033716;28;20111;-61